Detalii statie MOLDOVA TIGANASI [00001D08]

Toti senzorii

Date Temperatura solului [C]Precipitatii [mm]Voltaj baterie [mV]Leaf Wetness [Min]HC Air temperature [C]HC Relative humidity [%]Punctul de roua [C]
medieminmaxsumaultimatimpmedieminmaxmediemediemin
2019-08-15 20:00:00 20.9 20.8 21.1 0 7070 16.94 16.75 17.04 83.01 13.9 13.7
2019-08-15 21:00:00 20.7 20.6 20.9 0 7040 16.31 15.99 16.66 85.49 13.7 13.7
2019-08-15 22:00:00 20.4 20.2 20.7 0 7010 15.38 14.86 16.1 90.44 13.7 13.5
2019-08-15 23:00:00 20.1 19.9 20.4 0 7000 14.64 14.48 14.83 93.99 13.5 13.3
2019-08-16 00:00:00 19.8 19.7 20 0 6982 14.51 14.26 14.68 91.18 12.9 12.6
2019-08-16 01:00:00 19.5 19.4 19.7 0 6962 13.92 13.32 14.43 92.13 12.5 12.3
2019-08-16 02:00:00 19.2 19.1 19.5 0 6952 13 12.01 13.66 99.28 12.8 12
2019-08-16 03:00:00 18.9 18.9 19.1 0 6942 12.74 12.16 13.18 100 12.6 12.1
2019-08-16 04:00:00 18.7 18.5 18.8 0 6932 12.4 11.94 13.02 100 12.3 11.9
2019-08-16 05:00:00 18.4 18.3 18.6 0 6942 12.14 11.13 13.38 99.62 12 11.1
2019-08-16 06:00:00 18.2 18.1 18.4 0 6942 12.41 11.7 13.96 99.76 12.3 11.7
2019-08-16 07:00:00 18.2 18.1 18.4 0 7138 14.94 13.82 15.73 92.32 13.5 12.8
2019-08-16 08:00:00 18.7 18.4 19.1 0 7362 16.82 15.67 17.57 85.4 14.2 13.9
2019-08-16 09:00:00 19.3 19 19.6 0 7362 17.3 16.51 18.13 84.24 14.5 14.2
2019-08-16 10:00:00 20.2 19.6 20.8 0 7362 20.66 18.66 21.88 61.27 12.6 11.2
2019-08-16 11:00:00 21.4 21 22.1 0 7362 22.56 21.33 23.69 48.35 10.8 9.8
2019-08-16 12:00:00 22.9 22.1 23.8 0 7352 23.7 23.19 24.44 44.26 10.6 9.6
2019-08-16 13:00:00 24.3 23.7 25.1 0 7352 24.47 23.89 25.26 40.13 9.8 8.7
2019-08-16 14:00:00 25.4 25.2 25.7 0 7362 25.1 24.11 25.64 37.64 9.3 8.9
2019-08-16 15:00:00 25.5 25.4 25.7 0 7352 25.02 23.49 26.13 38.66 9.7 9.2
2019-08-16 16:00:00 25.1 24.8 25.4 0 7352 24.89 24.2 25.36 39.06 9.7 9.2
2019-08-16 17:00:00 24.4 24.2 24.8 0 7352 24.25 23.48 24.98 39.25 9.2 8.8
2019-08-16 18:00:00 23.7 23.4 24.1 0 7352 23.38 22.93 23.81 41.01 9.1 8.8
2019-08-16 19:00:00 23 22.7 23.4 0 7206 21.48 20.06 22.68 44.62 8.6 8.5
2019-08-16 20:00:00 22.3 21.9 22.7 0 7088 18.64 17.9 19.69 53.11 8.7 8.5
2019-08-16 21:00:00 21.6 21.4 22 0 7060 18.08 17.5 18.8 54.82 8.6 8.3
2019-08-16 22:00:00 21.1 20.7 21.4 0 7040 17.1 16.34 17.57 59.36 9 8.9
2019-08-16 23:00:00 20.6 20.5 20.9 0 7020 14.59 13.56 15.78 71.28 9.2 8.7
2019-08-17 00:00:00 20.1 19.9 20.4 0 6992 13.87 13.02 15.73 76.35 9.5 9.1
2019-08-17 01:00:00 19.7 19.4 20 0 6972 12.9 12.46 13.62 81.97 9.7 9.5
2019-08-17 02:00:00 19.3 19.1 19.5 0 6972 11.46 10.84 12.17 89.53 9.6 9.1
2019-08-17 03:00:00 18.8 18.6 19.1 0 6962 10.65 10.14 11.03 97.05 10 9.8
2019-08-17 04:00:00 18.5 18.4 18.7 0 6932 10.42 9.99 11.33 98.92 10.1 9.8
2019-08-17 05:00:00 18.2 18 18.4 0 6922 10.26 9.79 11.13 99.43 10 9.6
2019-08-17 06:00:00 17.9 17.9 18.2 0 6932 10.46 9.87 11.41 98.06 10 9.5
2019-08-17 07:00:00 17.9 17.8 18.1 0 7108 13.08 11.5 15.38 91.43 11.5 10.9
2019-08-17 08:00:00 18.3 18 18.7 0 7362 16.24 15.31 17.12 76.21 11.8 11.6
2019-08-17 09:00:00 19.1 18.7 19.8 0 7362 19.77 17.82 20.96 62.14 12.1 11.5
2019-08-17 10:00:00 20.7 19.9 21.5 0 7362 22.07 21.23 23.35 53.9 12.1 11.4
2019-08-17 11:00:00 22.3 21.7 22.9 0 7352 23.41 21.9 24.7 48.68 11.7 11
2019-08-17 12:00:00 23.1 23 23.4 0 7352 23.84 22.41 25.29 45.23 11 10.5
2019-08-17 13:00:00 23.5 23.3 23.8 0 7352 24.53 23.29 26.17 42.59 10.7 10.1
2019-08-17 14:00:00 24.1 23.9 24.4 0 7352 24.98 23.42 26.44 39.76 10.1 9.5
2019-08-17 15:00:00 24.3 24.1 24.5 0 7352 24.72 24.06 25.66 38.95 9.5 8.6
2019-08-17 16:00:00 24 23.7 24.2 0 7352 24.32 23.85 25.2 40.13 9.6 9.3
2019-08-17 17:00:00 23.5 23.3 23.8 0 7352 24.26 24.03 24.56 39.94 9.5 9.2
2019-08-17 18:00:00 23.1 22.9 23.4 0 7352 23.96 23.26 24.84 41.92 10 9.6
2019-08-17 19:00:00 22.5 22.4 22.8 0 7196 22.3 21.1 23.09 49.24 10.9 10.1